Time;durP1;ratioP1;P1;durP2;ratioP2;P2;SDS_P1;SDS_P2;PMS_P1;PMS_P2;Temp;Humidity;BMP_temperature;BMP_pressure;BME280_temperature;BME280_humidity;BME280_pressure;Samples;Min_cycle;Max_cycle;Signal;HPM_P1;HPM_P2
2021/01/15 00:01:35;;;;;;;48.63;21.83;;;-2.80;95.80;;;;;;4974074;28;20026;-76
2021/01/15 00:04:04;;;;;;;50.58;24.00;;;-2.90;95.70;;;;;;4973942;28;20086;-77
2021/01/15 00:06:30;;;;;;;48.35;22.98;;;-2.90;95.70;;;;;;4974131;28;20096;-76
2021/01/15 00:08:56;;;;;;;49.15;23.67;;;-3.00;95.70;;;;;;4974133;28;20105;-76
2021/01/15 00:11:30;;;;;;;55.25;24.50;;;-3.00;95.80;;;;;;4972657;28;20105;-75
2021/01/15 00:13:57;;;;;;;47.15;23.08;;;-3.00;95.80;;;;;;4974183;28;20023;-75
2021/01/15 00:16:31;;;;;;;50.65;24.35;;;-3.00;95.90;;;;;;4956453;28;20408;-76
2021/01/15 00:18:59;;;;;;;52.17;25.58;;;-3.10;95.90;;;;;;4974818;28;20022;-75
2021/01/15 00:21:32;;;;;;;53.47;25.35;;;-3.10;95.90;;;;;;4974031;28;20038;-76
2021/01/15 00:24:05;;;;;;;53.40;25.35;;;-3.10;95.90;;;;;;4973756;28;20030;-75
2021/01/15 00:26:32;;;;;;;55.42;25.95;;;-3.10;95.90;;;;;;4973654;28;20384;-76
2021/01/15 00:28:58;;;;;;;56.42;25.90;;;-3.20;95.90;;;;;;4973935;28;20101;-76
2021/01/15 00:31:34;;;;;;;58.85;27.50;;;-3.20;95.90;;;;;;4971371;28;20061;-76
2021/01/15 00:34:01;;;;;;;67.72;26.70;;;-3.20;95.90;;;;;;4954113;29;20030;-76
2021/01/15 00:36:27;;;;;;;57.20;26.48;;;-3.20;95.80;;;;;;4954106;29;20035;-76
2021/01/15 00:38:52;;;;;;;56.65;26.17;;;-3.30;95.80;;;;;;4954037;29;20470;-76
2021/01/15 00:41:18;;;;;;;58.42;27.23;;;-3.30;95.90;;;;;;4953078;29;20545;-76
2021/01/15 00:43:44;;;;;;;56.53;25.90;;;-3.30;95.80;;;;;;4954106;29;20023;-76
2021/01/15 00:46:32;;;;;;;51.92;24.95;;;-3.30;95.90;;;;;;4954239;29;20027;-75
2021/01/15 00:49:02;;;;;;;58.03;26.02;;;-3.30;95.90;;;;;;4952705;29;20023;-75
2021/01/15 00:51:27;;;;;;;56.58;26.05;;;-3.30;96.00;;;;;;4952920;29;20078;-76
2021/01/15 00:53:53;;;;;;;59.88;26.30;;;-3.40;95.90;;;;;;4953948;29;20359;-75
2021/01/15 00:56:19;;;;;;;59.90;26.48;;;-3.40;95.80;;;;;;4936652;29;20027;-75
2021/01/15 00:58:46;;;;;;;68.70;29.50;;;-3.40;95.80;;;;;;4936760;29;20114;-77
2021/01/15 01:01:14;;;;;;;71.97;31.60;;;-3.40;95.90;;;;;;4952492;29;20118;-77
2021/01/15 01:03:40;;;;;;;70.68;31.38;;;-3.40;96.00;;;;;;4952343;29;20066;-77
2021/01/15 01:06:13;;;;;;;71.05;31.90;;;-3.40;96.00;;;;;;4954005;29;20431;-76
2021/01/15 01:08:39;;;;;;;69.05;29.35;;;-3.40;96.00;;;;;;4953628;29;20474;-77
2021/01/15 01:11:20;;;;;;;56.72;27.27;;;-3.40;96.10;;;;;;4955799;28;20035;-76
2021/01/15 01:13:54;;;;;;;55.25;23.95;;;-3.40;96.10;;;;;;4957665;29;20031;-75
2021/01/15 01:16:20;;;;;;;52.05;24.48;;;-3.40;96.00;;;;;;4940484;29;20023;-74
2021/01/15 01:18:47;;;;;;;51.67;24.88;;;-3.50;96.00;;;;;;4940409;29;20099;-77
2021/01/15 01:21:13;;;;;;;60.60;23.85;;;-3.50;96.00;;;;;;4957936;29;20489;-75
2021/01/15 01:23:40;;;;;;;55.03;23.98;;;-3.50;96.00;;;;;;4957652;29;20118;-75
2021/01/15 01:26:06;;;;;;;51.33;23.75;;;-3.50;96.00;;;;;;4957394;29;20065;-75
2021/01/15 01:28:32;;;;;;;49.22;23.23;;;-3.50;96.00;;;;;;4957668;29;20090;-76
2021/01/15 01:30:58;;;;;;;52.67;23.63;;;-3.50;96.10;;;;;;4956472;29;20038;-76
2021/01/15 01:33:24;;;;;;;52.78;22.67;;;-3.50;96.20;;;;;;4956233;28;20134;-76
2021/01/15 01:35:56;;;;;;;48.38;22.20;;;-3.50;96.30;;;;;;4957184;29;20066;-76
2021/01/15 01:38:22;;;;;;;46.53;22.92;;;-3.50;96.30;;;;;;4960439;29;20023;-77
2021/01/15 01:40:48;;;;;;;45.63;21.90;;;-3.50;96.40;;;;;;4959516;29;20024;-76
2021/01/15 01:43:15;;;;;;;48.45;22.25;;;-3.40;96.50;;;;;;4958425;29;20034;-77
2021/01/15 01:45:42;;;;;;;42.67;21.35;;;-3.40;96.60;;;;;;4959761;29;20110;-76
2021/01/15 01:48:09;;;;;;;45.53;22.13;;;-3.30;96.70;;;;;;4957375;29;20119;-78
2021/01/15 01:50:37;;;;;;;40.47;20.67;;;-3.30;96.80;;;;;;4957352;29;20031;-77
2021/01/15 01:53:04;;;;;;;45.65;21.20;;;-3.20;96.90;;;;;;4957318;29;20127;-77
2021/01/15 01:55:30;;;;;;;43.53;21.02;;;-3.10;97.00;;;;;;4957535;29;20041;-77
2021/01/15 01:57:56;;;;;;;44.53;21.08;;;-3.10;97.00;;;;;;4957524;29;20028;-77
2021/01/15 02:00:23;;;;;;;39.47;21.10;;;-3.00;97.10;;;;;;4957424;29;20050;-77
2021/01/15 02:02:49;;;;;;;44.13;21.35;;;-3.00;97.10;;;;;;4956382;29;20027;-77
2021/01/15 02:05:14;;;;;;;42.95;20.52;;;-2.90;97.20;;;;;;4957723;29;20034;-76
2021/01/15 02:07:41;;;;;;;41.08;20.67;;;-2.80;97.20;;;;;;4957423;29;20039;-77
2021/01/15 02:10:11;;;;;;;42.92;20.63;;;-2.80;97.20;;;;;;4957505;29;20055;-76
2021/01/15 02:12:55;;;;;;;43.03;20.33;;;-2.80;97.10;;;;;;4957423;29;20023;-76
2021/01/15 02:15:54;;;;;;;40.33;20.92;;;-2.70;97.10;;;;;;4956227;29;20034;-76
2021/01/15 02:19:04;;;;;;;42.00;20.50;;;-2.70;97.10;;;;;;4959278;29;20024;-76
2021/01/15 02:21:51;;;;;;;43.65;21.92;;;-2.60;97.20;;;;;;4909181;29;20044;-76
2021/01/15 02:24:22;;;;;;;46.53;21.52;;;-2.60;97.30;;;;;;4900720;29;20080;-76
2021/01/15 02:27:18;;;;;;;42.20;20.92;;;-2.50;97.30;;;;;;4921938;29;20059;-76
2021/01/15 02:30:02;;;;;;;47.65;20.13;;;-2.50;97.30;;;;;;4957284;29;20091;-77
2021/01/15 02:33:06;;;;;;;39.10;20.52;;;-2.40;97.30;;;;;;4967773;28;20888;-76
2021/01/15 02:35:45;;;;;;;43.75;21.42;;;-2.40;97.40;;;;;;4958215;28;20023;-76
2021/01/15 02:38:27;;;;;;;46.03;21.70;;;-2.30;97.40;;;;;;4975872;28;20493;-75
2021/01/15 02:41:05;;;;;;;41.30;20.17;;;-2.30;97.30;;;;;;4975284;28;20130;-77
2021/01/15 02:43:36;;;;;;;41.72;20.75;;;-2.30;97.20;;;;;;4958487;28;20038;-75
2021/01/15 02:46:04;;;;;;;44.70;20.73;;;-2.20;97.30;;;;;;4975479;28;20027;-76
2021/01/15 02:48:31;;;;;;;41.20;20.83;;;-2.20;97.30;;;;;;4975681;28;20023;-75
2021/01/15 02:50:59;;;;;;;45.35;22.25;;;-2.10;97.40;;;;;;4975427;28;20054;-76
2021/01/15 02:53:26;;;;;;;47.17;23.23;;;-2.10;97.30;;;;;;4957994;28;20496;-76
2021/01/15 02:55:51;;;;;;;48.88;22.88;;;-2.10;97.30;;;;;;4958247;28;20030;-77
2021/01/15 02:58:17;;;;;;;44.58;21.95;;;-2.00;97.30;;;;;;4958281;28;20030;-77
2021/01/15 03:00:43;;;;;;;42.10;22.45;;;-2.10;97.10;;;;;;4975771;28;20047;-76
2021/01/15 03:03:26;;;;;;;40.78;21.35;;;-2.00;97.10;;;;;;4975375;28;20023;-76
2021/01/15 03:06:10;;;;;;;42.20;22.23;;;-2.00;97.20;;;;;;4975408;28;20027;-75
2021/01/15 03:08:37;;;;;;;45.25;22.10;;;-2.00;97.20;;;;;;4975203;28;20030;-76
2021/01/15 03:11:04;;;;;;;46.92;22.98;;;-2.00;97.10;;;;;;4957776;28;20027;-76
2021/01/15 03:13:31;;;;;;;42.30;21.20;;;-2.00;96.90;;;;;;4975071;28;20481;-76
2021/01/15 03:16:00;;;;;;;42.72;22.45;;;-2.00;96.70;;;;;;4974921;28;20027;-76
2021/01/15 03:18:27;;;;;;;48.13;21.40;;;-2.00;96.70;;;;;;4975009;28;20070;-77
2021/01/15 03:20:53;;;;;;;44.75;23.15;;;-2.10;96.70;;;;;;4975115;28;20031;-77
2021/01/15 03:23:19;;;;;;;46.35;22.67;;;-2.10;96.80;;;;;;4975347;28;20034;-76
2021/01/15 03:25:45;;;;;;;43.35;21.88;;;-2.00;96.80;;;;;;4957473;28;20034;-76
2021/01/15 03:28:11;;;;;;;45.58;22.02;;;-2.10;96.80;;;;;;4957581;28;20046;-76
2021/01/15 03:30:36;;;;;;;40.80;21.20;;;-2.10;96.70;;;;;;4974682;28;20027;-76
2021/01/15 03:33:04;;;;;;;40.90;20.98;;;-2.10;96.70;;;;;;4974546;28;20043;-76
2021/01/15 03:35:31;;;;;;;46.45;22.15;;;-2.10;96.70;;;;;;4957364;28;20049;-76
2021/01/15 03:38:06;;;;;;;42.95;21.50;;;-2.10;96.60;;;;;;4974590;28;20034;-76
2021/01/15 03:40:39;;;;;;;45.30;21.67;;;-2.10;96.60;;;;;;4974719;28;20480;-75
2021/01/15 03:43:22;;;;;;;42.55;21.25;;;-2.20;96.60;;;;;;4974506;28;20027;-76
2021/01/15 03:45:49;;;;;;;49.53;22.33;;;-2.20;96.60;;;;;;4974543;28;20054;-76
2021/01/15 03:48:16;;;;;;;45.20;21.88;;;-2.10;96.60;;;;;;4974485;28;20066;-76
2021/01/15 03:50:43;;;;;;;46.50;22.02;;;-2.20;96.40;;;;;;4974154;28;20065;-76
2021/01/15 03:53:09;;;;;;;41.70;21.13;;;-2.20;96.40;;;;;;4974329;28;20058;-77
2021/01/15 03:55:35;;;;;;;45.13;21.38;;;-2.20;96.50;;;;;;4974393;28;20050;-76
2021/01/15 03:58:00;;;;;;;44.55;22.42;;;-2.30;96.30;;;;;;4974374;28;20377;-76
2021/01/15 04:00:26;;;;;;;47.95;22.40;;;-2.30;96.30;;;;;;4974333;28;20027;-76
2021/01/15 04:02:52;;;;;;;42.72;21.38;;;-2.30;96.40;;;;;;4974240;28;20034;-77
2021/01/15 04:05:18;;;;;;;45.35;22.98;;;-2.30;96.50;;;;;;4974084;28;20027;-76
2021/01/15 04:07:43;;;;;;;45.88;22.58;;;-2.30;96.50;;;;;;4957040;28;20070;-77
2021/01/15 04:10:12;;;;;;;42.67;21.95;;;-2.30;96.60;;;;;;4957104;28;20031;-76
2021/01/15 04:12:39;;;;;;;41.88;20.85;;;-2.30;96.70;;;;;;4972850;28;20031;-76
2021/01/15 04:15:12;;;;;;;41.92;21.05;;;-2.20;96.70;;;;;;4973886;28;20037;-76
2021/01/15 04:17:38;;;;;;;41.65;21.70;;;-2.20;96.70;;;;;;4956537;28;20078;-76
2021/01/15 04:20:06;;;;;;;47.60;22.58;;;-2.20;96.80;;;;;;4973817;28;20026;-76
2021/01/15 04:22:35;;;;;;;48.20;22.23;;;-2.10;96.90;;;;;;4973933;28;20489;-76
2021/01/15 04:25:02;;;;;;;47.22;22.38;;;-2.10;96.90;;;;;;4973986;28;20054;-77
2021/01/15 04:27:32;;;;;;;45.05;23.13;;;-2.10;96.90;;;;;;4973555;28;20113;-76
2021/01/15 04:30:01;;;;;;;43.45;22.25;;;-2.10;96.70;;;;;;4973839;28;20485;-76
2021/01/15 04:32:27;;;;;;;49.33;23.63;;;-2.00;96.80;;;;;;4973605;28;20054;-77
2021/01/15 04:34:55;;;;;;;49.05;24.48;;;-2.10;96.60;;;;;;4973465;28;20465;-77
2021/01/15 04:37:20;;;;;;;48.17;23.90;;;-2.10;96.50;;;;;;4973623;28;20026;-77
2021/01/15 04:39:46;;;;;;;47.17;23.38;;;-2.10;96.60;;;;;;4973790;28;20029;-77
2021/01/15 04:42:15;;;;;;;49.15;24.08;;;-2.10;96.50;;;;;;4973756;28;20335;-77
2021/01/15 04:44:42;;;;;;;52.33;24.98;;;-2.10;96.60;;;;;;4973739;28;20061;-76
2021/01/15 04:47:09;;;;;;;53.25;25.25;;;-2.10;96.70;;;;;;4956220;28;20031;-76
2021/01/15 04:49:36;;;;;;;53.90;25.70;;;-2.10;96.60;;;;;;4973524;28;20039;-76
2021/01/15 04:52:02;;;;;;;51.20;25.40;;;-2.00;96.70;;;;;;4972658;28;20030;-76
2021/01/15 04:54:36;;;;;;;50.97;24.30;;;-2.00;96.80;;;;;;4973799;28;20433;-76
2021/01/15 04:57:10;;;;;;;60.75;27.42;;;-2.00;96.90;;;;;;4973541;28;20125;-76
2021/01/15 04:59:48;;;;;;;56.17;27.60;;;-2.00;96.90;;;;;;4977353;28;20054;-76
2021/01/15 05:02:17;;;;;;;56.83;26.75;;;-1.90;96.80;;;;;;4984337;28;20019;-76
2021/01/15 05:04:44;;;;;;;61.95;28.73;;;-1.90;96.90;;;;;;4976967;28;20712;-75
2021/01/15 05:07:12;;;;;;;65.28;27.88;;;-1.90;96.90;;;;;;4973638;28;20315;-76
2021/01/15 05:09:42;;;;;;;61.22;29.73;;;-1.80;96.90;;;;;;4973544;28;20030;-76
2021/01/15 05:12:17;;;;;;;65.90;30.80;;;-1.80;97.20;;;;;;4955997;28;20054;-76
2021/01/15 05:14:48;;;;;;;63.17;29.38;;;-1.80;96.90;;;;;;4972993;28;20026;-77
2021/01/15 05:17:18;;;;;;;64.40;29.85;;;-1.80;96.90;;;;;;4955551;28;20023;-76
2021/01/15 05:19:44;;;;;;;65.07;28.77;;;-1.70;97.00;;;;;;4973171;28;20026;-76
2021/01/15 05:22:13;;;;;;;70.38;31.08;;;-1.70;97.00;;;;;;4955919;28;20034;-77
2021/01/15 05:24:40;;;;;;;57.45;27.23;;;-1.60;97.00;;;;;;4973140;28;20430;-77
2021/01/15 05:30:15;;;;;;;58.95;27.88;;;-1.60;96.90;;;;;;4973378;28;20121;-76
2021/01/15 05:32:41;;;;;;;53.17;26.13;;;-1.60;96.80;;;;;;4955121;28;20378;-76
2021/01/15 05:35:08;;;;;;;51.55;25.00;;;-1.60;96.80;;;;;;4972530;28;20498;-76
2021/01/15 05:37:34;;;;;;;49.85;25.38;;;-1.60;96.80;;;;;;4972664;28;20038;-77
2021/01/15 05:39:59;;;;;;;52.00;25.27;;;-1.60;96.80;;;;;;4972540;28;20027;-77
2021/01/15 05:42:25;;;;;;;53.50;25.13;;;-1.50;96.90;;;;;;4954946;28;20058;-77
2021/01/15 05:44:51;;;;;;;46.58;25.15;;;-1.50;96.90;;;;;;4972589;28;20023;-76
2021/01/15 05:47:17;;;;;;;51.25;24.95;;;-1.50;96.90;;;;;;4955417;28;20088;-76
2021/01/15 05:49:58;;;;;;;51.15;24.85;;;-1.40;97.00;;;;;;4972825;28;20026;-76
2021/01/15 05:52:23;;;;;;;54.30;27.10;;;-1.40;97.00;;;;;;4972289;28;20437;-76
2021/01/15 05:54:54;;;;;;;51.90;25.40;;;-1.40;97.00;;;;;;4954660;28;20069;-77
2021/01/15 05:57:26;;;;;;;60.25;28.27;;;-1.30;97.00;;;;;;4972757;28;20022;-76
2021/01/15 05:59:52;;;;;;;53.83;28.05;;;-1.30;97.00;;;;;;4976086;28;20397;-76
2021/01/15 06:02:18;;;;;;;58.67;29.95;;;-1.30;96.90;;;;;;4976062;28;20031;-77
2021/01/15 06:04:44;;;;;;;60.78;28.90;;;-1.30;96.80;;;;;;4976045;28;20027;-76
2021/01/15 06:07:09;;;;;;;46.72;23.13;;;-1.30;96.80;;;;;;4975817;28;20042;-75
2021/01/15 06:09:40;;;;;;;55.08;23.77;;;-1.30;96.60;;;;;;4975775;28;20393;-76
2021/01/15 06:12:08;;;;;;;52.78;22.70;;;-1.40;96.70;;;;;;4975939;28;20023;-76
2021/01/15 06:14:34;;;;;;;43.90;19.83;;;-1.40;96.30;;;;;;4975620;28;20386;-76
2021/01/15 06:17:09;;;;;;;49.85;21.35;;;-1.50;96.20;;;;;;4975511;28;20026;-77
2021/01/15 06:19:49;;;;;;;46.88;21.48;;;-1.50;96.20;;;;;;4958494;28;20038;-75
2021/01/15 06:22:32;;;;;;;53.28;22.70;;;-1.60;96.20;;;;;;4975781;28;20084;-76
2021/01/15 06:25:06;;;;;;;;;;;-1.60;96.20;;;;;;4974302;28;20026;-77
2021/01/15 06:27:40;;;;;;;49.15;20.38;;;-1.60;96.30;;;;;;4973895;28;19906;-76
2021/01/15 06:30:13;;;;;;;49.22;21.48;;;-1.60;96.30;;;;;;4958041;28;20038;-79
2021/01/15 06:32:40;;;;;;;42.35;19.33;;;-1.60;96.40;;;;;;4975286;28;20493;-79
2021/01/15 06:35:07;;;;;;;40.72;19.40;;;-1.60;96.50;;;;;;4975228;28;20058;-78
2021/01/15 06:37:36;;;;;;;39.20;18.27;;;-1.60;96.50;;;;;;4975530;28;20501;-83
2021/01/15 06:40:06;;;;;;;42.28;20.55;;;-1.60;96.50;;;;;;4957483;28;20437;-78
2021/01/15 06:42:41;;;;;;;36.88;18.33;;;-1.60;96.60;;;;;;4974737;28;20034;-78
2021/01/15 06:45:13;;;;;;;40.97;17.52;;;-1.50;96.60;;;;;;4956295;28;20432;-80
2021/01/15 06:47:40;;;;;;;34.50;18.03;;;-1.50;96.70;;;;;;4974400;28;20102;-79
2021/01/15 06:50:11;;;;;;;42.65;17.48;;;-1.50;96.70;;;;;;4974122;28;20071;-78
2021/01/15 06:52:37;;;;;;;43.30;17.85;;;-1.40;96.70;;;;;;4956957;28;20165;-79
2021/01/15 06:55:07;;;;;;;38.50;17.38;;;-1.40;96.60;;;;;;4957252;28;20092;-79
2021/01/15 06:57:38;;;;;;;39.30;18.30;;;-1.40;96.60;;;;;;4956517;28;20034;-80
2021/01/15 07:00:04;;;;;;;44.97;21.40;;;-1.40;96.60;;;;;;4974375;28;20374;-79
2021/01/15 07:02:49;;;;;;;48.90;20.50;;;-1.40;96.70;;;;;;4956695;28;20047;-79
2021/01/15 07:05:16;;;;;;;43.83;20.90;;;-1.30;96.70;;;;;;4956992;28;20086;-78
2021/01/15 07:07:43;;;;;;;45.25;20.35;;;-1.20;96.80;;;;;;4973008;28;20026;-79
2021/01/15 07:10:09;;;;;;;47.33;23.20;;;-1.10;97.00;;;;;;4955319;28;20023;-78
2021/01/15 07:12:42;;;;;;;43.08;20.25;;;-1.10;96.70;;;;;;4972771;28;20084;-79
2021/01/15 07:15:15;;;;;;;41.38;18.75;;;-1.10;96.80;;;;;;4972831;28;20106;-80
2021/01/15 07:17:47;;;;;;;46.22;20.52;;;-1.00;96.70;;;;;;4970971;28;20492;-79
2021/01/15 07:20:18;;;;;;;49.97;21.05;;;-1.00;96.60;;;;;;4974287;28;20433;-79
2021/01/15 07:22:59;;;;;;;44.83;20.60;;;-1.00;96.60;;;;;;4974016;28;20035;-80
2021/01/15 07:25:26;;;;;;;44.20;21.05;;;-0.90;96.70;;;;;;4973741;28;20031;-80
2021/01/15 07:27:52;;;;;;;51.97;23.65;;;-0.80;96.80;;;;;;4973842;28;20730;-79
2021/01/15 07:30:28;;;;;;;58.22;26.83;;;-0.80;96.80;;;;;;4973746;28;20030;-79
2021/01/15 07:32:58;;;;;;;46.83;22.77;;;-0.70;96.80;;;;;;4955498;28;20051;-79
2021/01/15 07:35:26;;;;;;;49.15;24.67;;;-0.70;96.50;;;;;;4956511;28;20450;-80
2021/01/15 07:38:12;;;;;;;64.20;27.13;;;-0.60;96.50;;;;;;4956199;28;20035;-79
2021/01/15 07:40:39;;;;;;;68.97;30.65;;;-0.60;96.40;;;;;;4972690;28;20361;-82
2021/01/15 07:43:07;;;;;;;64.55;29.83;;;-0.60;96.30;;;;;;4956794;28;20037;-87
2021/01/15 07:45:42;;;;;;;59.53;28.80;;;-0.60;96.30;;;;;;4961391;28;20030;-86
2021/01/15 07:48:09;;;;;;;69.40;30.73;;;-0.60;96.30;;;;;;4976226;28;20450;-86
2021/01/15 07:50:42;;;;;;;57.15;27.73;;;-0.50;96.30;;;;;;4975733;28;20465;-82
2021/01/15 07:53:23;;;;;;;66.32;31.35;;;-0.50;96.30;;;;;;4975433;28;20052;-90
2021/01/15 07:55:56;;;;;;;67.57;29.60;;;-0.40;96.30;;;;;;4976279;28;20039;-83
2021/01/15 07:58:24;;;;;;;63.45;28.05;;;-0.40;96.20;;;;;;4976785;28;20519;-86
2021/01/15 08:00:50;;;;;;;52.90;25.05;;;-0.40;96.10;;;;;;4975649;28;20538;-85
2021/01/15 08:03:17;;;;;;;49.95;24.67;;;-0.40;96.00;;;;;;4959450;28;20054;-89
2021/01/15 08:05:44;;;;;;;55.15;26.48;;;-0.40;95.90;;;;;;4981556;28;20616;-86
2021/01/15 08:08:17;;;;;;;53.83;25.83;;;-0.40;95.80;;;;;;4976635;28;20470;-86
2021/01/15 08:10:48;;;;;;;;;;;-0.30;95.80;;;;;;4977096;28;20062;-87
2021/01/15 08:13:21;;;;;;;52.92;24.17;;;-0.30;95.80;;;;;;4974453;28;19906;-86
2021/01/15 08:15:47;;;;;;;50.63;22.80;;;-0.30;95.70;;;;;;4975492;28;20034;-89
2021/01/15 08:18:13;;;;;;;46.47;21.48;;;-0.30;95.60;;;;;;4958412;28;20035;-87
2021/01/15 08:21:06;;;;;;;46.05;21.95;;;-0.40;95.40;;;;;;4974891;28;20015;-87
2021/01/15 08:23:31;;;;;;;54.88;24.80;;;-0.40;95.20;;;;;;4955820;28;20035;-87
2021/01/15 08:26:00;;;;;;;51.28;23.38;;;-0.50;95.20;;;;;;4976080;28;20034;-87
2021/01/15 08:28:26;;;;;;;50.38;24.25;;;-0.50;95.20;;;;;;4976685;28;20038;-87
2021/01/15 08:31:03;;;;;;;64.22;26.20;;;-0.50;95.30;;;;;;4975637;28;20027;-87
2021/01/15 08:33:29;;;;;;;52.25;24.58;;;-0.50;95.30;;;;;;4976016;28;20454;-86
2021/01/15 08:35:57;;;;;;;50.40;23.30;;;-0.50;95.40;;;;;;4975596;28;20035;-85
2021/01/15 08:38:34;;;;;;;49.28;23.92;;;-0.40;95.50;;;;;;4978858;28;20025;-83
2021/01/15 08:41:01;;;;;;;44.92;22.08;;;-0.40;95.40;;;;;;4974571;28;20045;-82
2021/01/15 08:43:30;;;;;;;42.10;19.10;;;-0.40;95.60;;;;;;4975105;28;20783;-81
2021/01/15 08:45:56;;;;;;;36.88;20.33;;;-0.30;95.50;;;;;;4957673;28;20030;-82
2021/01/15 08:48:22;;;;;;;38.20;19.70;;;-0.30;95.60;;;;;;4976223;28;20143;-81
2021/01/15 08:50:49;;;;;;;34.22;16.70;;;-0.30;95.60;;;;;;4974747;28;20464;-81
2021/01/15 08:53:18;;;;;;;36.53;18.30;;;-0.20;95.60;;;;;;4974090;28;20042;-81
2021/01/15 08:55:47;;;;;;;34.70;17.92;;;-0.10;95.50;;;;;;4957618;28;20026;-81
2021/01/15 08:58:13;;;;;;;42.15;21.05;;;-0.10;95.40;;;;;;4974624;28;20326;-82
2021/01/15 09:00:39;;;;;;;36.05;19.55;;;0.00;95.40;;;;;;4974282;28;20027;-82
2021/01/15 09:03:05;;;;;;;42.00;19.88;;;0.00;95.30;;;;;;4973819;28;20034;-81
2021/01/15 09:05:32;;;;;;;41.88;20.55;;;0.00;95.10;;;;;;4973291;28;20022;-83
2021/01/15 09:08:03;;;;;;;59.75;27.42;;;0.00;95.10;;;;;;4973680;28;20031;-81
2021/01/15 09:10:29;;;;;;;56.47;27.83;;;0.00;94.90;;;;;;4973574;28;20062;-82
2021/01/15 09:13:03;;;;;;;50.35;24.35;;;0.00;94.80;;;;;;4973433;28;20035;-84
2021/01/15 09:15:29;;;;;;;56.15;26.65;;;0.00;94.70;;;;;;4956728;28;20398;-83
2021/01/15 09:17:58;;;;;;;54.72;26.42;;;0.00;94.60;;;;;;4973705;28;20080;-83
2021/01/15 09:20:25;;;;;;;48.92;23.25;;;0.00;94.50;;;;;;4973906;28;20027;-83
2021/01/15 09:22:52;;;;;;;39.58;19.98;;;0.00;94.60;;;;;;4974442;28;20540;-83
2021/01/15 09:25:21;;;;;;;42.03;21.02;;;0.00;94.50;;;;;;4974829;28;20050;-83
2021/01/15 09:27:46;;;;;;;35.30;19.98;;;0.00;94.40;;;;;;4975659;28;20053;-84
2021/01/15 09:30:14;;;;;;;37.58;18.10;;;0.00;94.30;;;;;;4974961;28;20038;-85
2021/01/15 09:32:43;;;;;;;44.58;20.20;;;-0.10;94.10;;;;;;4977583;28;20490;-85
2021/01/15 09:35:11;;;;;;;34.33;18.88;;;-0.10;94.20;;;;;;4978448;28;20033;-85
2021/01/15 09:37:36;;;;;;;40.45;19.55;;;-0.10;94.30;;;;;;4979111;28;20034;-84
2021/01/15 09:40:04;;;;;;;32.10;17.40;;;0.00;94.40;;;;;;4962043;28;20023;-84
2021/01/15 09:42:30;;;;;;;33.85;18.23;;;0.00;94.50;;;;;;4978673;28;20030;-84
2021/01/15 09:44:56;;;;;;;26.90;15.00;;;0.10;94.50;;;;;;4978896;28;20102;-85
2021/01/15 09:47:21;;;;;;;26.75;14.60;;;0.10;94.20;;;;;;4978911;28;20100;-84
2021/01/15 09:49:47;;;;;;;30.65;15.75;;;0.10;93.90;;;;;;4961919;28;20038;-85
2021/01/15 09:52:13;;;;;;;32.92;16.02;;;0.00;93.90;;;;;;4978709;28;20134;-84
2021/01/15 09:54:39;;;;;;;27.13;14.88;;;0.10;94.40;;;;;;4962687;28;20407;-83
2021/01/15 09:57:05;;;;;;;27.42;14.35;;;0.20;94.60;;;;;;4979679;28;20034;-84
2021/01/15 09:59:31;;;;;;;26.25;14.55;;;0.40;94.70;;;;;;4960514;28;20030;-83
2021/01/15 10:02:10;;;;;;;28.50;15.10;;;0.50;94.70;;;;;;4979018;28;20082;-82
2021/01/15 10:04:36;;;;;;;28.52;14.15;;;0.60;94.40;;;;;;4960771;28;20054;-83
2021/01/15 10:07:01;;;;;;;26.10;12.77;;;0.70;94.20;;;;;;4961120;28;20027;-83
2021/01/15 10:09:27;;;;;;;27.17;14.77;;;0.70;94.30;;;;;;4978112;28;20023;-83
2021/01/15 10:11:53;;;;;;;25.92;12.95;;;0.90;94.60;;;;;;4980485;28;20046;-84
2021/01/15 10:14:18;;;;;;;28.23;12.77;;;1.10;94.70;;;;;;4979606;28;20030;-84
2021/01/15 10:16:47;;;;;;;19.65;12.07;;;1.20;94.50;;;;;;4978397;28;20027;-83
2021/01/15 10:19:13;;;;;;;21.05;11.95;;;1.30;94.00;;;;;;4978115;28;20517;-86
2021/01/15 10:21:39;;;;;;;24.33;13.07;;;1.30;93.60;;;;;;4979258;28;20019;-85
2021/01/15 10:24:06;;;;;;;22.05;11.73;;;1.30;93.20;;;;;;4977987;28;20034;-85
2021/01/15 10:26:34;;;;;;;22.60;12.07;;;1.30;92.90;;;;;;4975414;28;20026;-78
2021/01/15 10:29:03;;;;;;;27.45;13.80;;;1.20;92.70;;;;;;4957424;28;20043;-77
2021/01/15 10:31:30;;;;;;;23.70;12.45;;;1.20;92.50;;;;;;4974928;28;20066;-78
2021/01/15 10:34:00;;;;;;;20.42;11.18;;;1.10;92.20;;;;;;4974661;28;20042;-79
2021/01/15 10:36:27;;;;;;;20.13;10.90;;;0.90;91.90;;;;;;4975721;28;20035;-77
2021/01/15 10:38:56;;;;;;;21.67;10.82;;;0.90;92.10;;;;;;4975098;28;20433;-78
2021/01/15 10:41:44;;;;;;;25.35;11.82;;;0.90;92.30;;;;;;4974620;28;20476;-78
2021/01/15 10:44:12;;;;;;;18.65;10.52;;;0.90;92.70;;;;;;4972533;28;20470;-77
2021/01/15 10:46:57;;;;;;;22.38;11.32;;;1.00;92.80;;;;;;4957637;28;20042;-78
2021/01/15 10:49:25;;;;;;;23.85;11.90;;;1.10;93.00;;;;;;4974599;28;20110;-78
2021/01/15 10:51:53;;;;;;;18.58;10.43;;;1.20;92.90;;;;;;4974823;28;20532;-78
2021/01/15 10:54:19;;;;;;;20.45;10.90;;;1.20;92.40;;;;;;4974559;28;20030;-78
2021/01/15 10:59:54;;;;;;;24.33;11.98;;;1.10;91.80;;;;;;4964063;28;20034;-77
2021/01/15 11:02:20;;;;;;;26.67;13.15;;;1.00;91.60;;;;;;4974819;28;20023;-78
2021/01/15 11:04:46;;;;;;;28.10;13.50;;;0.90;91.60;;;;;;4974875;28;20050;-78
2021/01/15 11:07:12;;;;;;;30.38;14.27;;;0.90;91.90;;;;;;4974843;28;20035;-77
2021/01/15 11:09:37;;;;;;;27.35;13.38;;;1.00;91.80;;;;;;4974891;28;20031;-77
2021/01/15 11:12:04;;;;;;;29.60;14.95;;;1.00;91.50;;;;;;4957507;28;20054;-78
2021/01/15 11:14:30;;;;;;;26.60;13.20;;;0.90;91.40;;;;;;4975113;28;20039;-77
2021/01/15 11:16:55;;;;;;;27.75;13.52;;;0.90;91.20;;;;;;4974534;28;20026;-78
2021/01/15 11:19:21;;;;;;;24.48;12.13;;;0.80;91.10;;;;;;4974406;28;20019;-79
2021/01/15 11:21:59;;;;;;;22.92;11.27;;;0.70;90.80;;;;;;4956489;28;20416;-78
2021/01/15 11:24:28;;;;;;;26.35;14.48;;;0.70;90.80;;;;;;4974260;28;20027;-76
2021/01/15 11:26:54;;;;;;;25.50;11.43;;;0.70;90.80;;;;;;4974120;28;20098;-78
2021/01/15 11:29:19;;;;;;;24.45;12.70;;;0.70;90.80;;;;;;4973865;28;20106;-79
2021/01/15 11:31:45;;;;;;;20.85;11.05;;;0.70;90.60;;;;;;4956036;28;20086;-77
2021/01/15 11:34:11;;;;;;;19.67;10.95;;;0.60;90.40;;;;;;4956670;28;20026;-77
2021/01/15 11:36:37;;;;;;;22.60;11.07;;;0.70;90.40;;;;;;4973853;28;20034;-77
2021/01/15 11:39:10;;;;;;;25.35;11.38;;;0.60;90.30;;;;;;4956645;28;20123;-77
2021/01/15 11:41:35;;;;;;;;;;;0.60;90.10;;;;;;4974168;28;20026;-77
2021/01/15 11:44:01;;;;;;;19.02;9.77;;;0.60;89.40;;;;;;4974065;28;19906;-77
2021/01/15 11:46:27;;;;;;;19.42;10.70;;;0.50;89.60;;;;;;4977509;28;20031;-77
2021/01/15 11:48:53;;;;;;;17.92;10.25;;;0.50;89.90;;;;;;4992744;28;20027;-77
2021/01/15 11:51:18;;;;;;;18.98;10.32;;;0.40;89.20;;;;;;4960978;28;20038;-81
2021/01/15 11:53:45;;;;;;;21.65;10.45;;;0.30;88.80;;;;;;4957705;28;20035;-80
2021/01/15 11:56:10;;;;;;;22.45;11.10;;;0.20;88.70;;;;;;4956435;28;20035;-81
2021/01/15 11:58:37;;;;;;;19.35;11.00;;;0.10;88.70;;;;;;4957321;28;20037;-82
2021/01/15 12:01:04;;;;;;;20.85;10.73;;;0.10;88.80;;;;;;4974093;28;20122;-80
2021/01/15 12:03:29;;;;;;;17.83;10.48;;;-0.10;88.40;;;;;;4974225;28;20022;-80
2021/01/15 12:05:55;;;;;;;16.73;8.50;;;-0.20;87.60;;;;;;4975268;28;20045;-80
2021/01/15 12:08:25;;;;;;;18.30;8.93;;;-0.30;87.00;;;;;;4957973;28;20027;-82
2021/01/15 12:10:57;;;;;;;17.65;9.60;;;-0.50;86.70;;;;;;4974394;28;20081;-81
2021/01/15 12:13:23;;;;;;;18.33;9.15;;;-0.60;86.90;;;;;;4973153;28;20023;-81
2021/01/15 12:15:54;;;;;;;22.13;11.00;;;-0.80;86.40;;;;;;4973570;28;20019;-80
2021/01/15 12:18:20;;;;;;;17.48;9.57;;;-1.00;86.50;;;;;;4972556;28;20081;-80
2021/01/15 12:20:46;;;;;;;19.17;9.23;;;-1.10;86.00;;;;;;4973760;28;20037;-80
2021/01/15 12:23:12;;;;;;;19.40;10.75;;;-1.30;86.10;;;;;;4974190;28;20416;-81
2021/01/15 12:25:48;;;;;;;21.13;10.93;;;-1.40;86.50;;;;;;4973358;28;20026;-80
2021/01/15 12:28:15;;;;;;;20.70;10.13;;;-1.40;87.00;;;;;;4956298;28;20054;-79
2021/01/15 12:30:45;;;;;;;22.45;10.07;;;-1.40;87.20;;;;;;4955859;28;20034;-82
2021/01/15 12:33:15;;;;;;;22.77;11.55;;;-1.50;87.20;;;;;;4973832;28;20138;-80
2021/01/15 12:35:42;;;;;;;19.80;10.40;;;-1.50;87.30;;;;;;4973588;28;20027;-78
2021/01/15 12:38:10;;;;;;;17.50;9.77;;;-1.50;86.80;;;;;;4974287;28;20027;-79
2021/01/15 12:40:37;;;;;;;20.27;11.10;;;-1.60;86.60;;;;;;4956415;28;20033;-79
2021/01/15 12:43:06;;;;;;;22.25;10.85;;;-1.60;86.60;;;;;;4973936;28;20023;-79
2021/01/15 12:45:33;;;;;;;22.48;10.23;;;-1.70;86.00;;;;;;4956749;28;20029;-80
2021/01/15 12:47:59;;;;;;;20.35;10.57;;;-1.90;85.70;;;;;;4973270;28;20103;-80